Terminal Aerodrome Forecast
Issued by NWS

Home | Current Version | Previous Version | Text Only | Print | Product List | Glossary On
Versions: 1 2 3 4 5 6 7 8 9 10 11 12 13 14 15 16 17 18 19 20 21 22 23 24 25 26
000
FTPQ31 PGUM 261808 AAD
TAFGUM
TAF AMD

TAF AMD
PKWA 261808Z 2618/2718 06018G28KT P6SM VCSH FEW018 SCT040 BKN100
      TEMPO 2618/2622 -SHRA SCT016 BKN030=

USA.gov is the U.S. government's official web portal to all federal, state and local government web resources and services.